Terminal Aerodrome Forecast
Issued by NWS Albuquerque, NM

Home | Current Version | Previous Version | Text Only | Print | Product List | Glossary On
Versions: 1 2 3 4 5 6 7 8 9 10 11 12 13 14
000
FTUS45 KABQ 231736
TAFABQ
TAF
KABQ 231736Z 2318/2418 26025G35KT P6SM FEW080
     FM232200 29025G34KT P6SM FEW070
     FM240100 31015KT P6SM SCT070
     FM240600 29006KT P6SM SCT060=

USA.gov is the U.S. government's official web portal to all federal, state and local government web resources and services.